createdAt,value
2022-11-15T00:01:19.888Z,72.75
2022-11-15T00:03:48.378Z,72.64
2022-11-15T00:06:16.686Z,72.63
2022-11-15T00:08:44.952Z,73.13
2022-11-15T00:11:14.918Z,73.58
2022-11-15T00:13:43.203Z,72.57
2022-11-15T00:16:11.568Z,72.74
2022-11-15T00:18:40.333Z,71.75
2022-11-15T00:21:10.282Z,71.86
2022-11-15T00:23:38.554Z,73.24
2022-11-15T00:26:06.994Z,72.50
2022-11-15T00:28:36.609Z,73.04
2022-11-15T00:31:06.018Z,72.23
2022-11-15T00:33:35.315Z,71.74
2022-11-15T00:36:05.524Z,72.74
2022-11-15T00:38:34.851Z,72.61
2022-11-15T00:41:09.024Z,73.77
2022-11-15T00:43:41.190Z,74.08
2022-11-15T00:46:10.865Z,75.42
2022-11-15T00:48:39.561Z,75.97
2022-11-15T00:51:08.101Z,76.76
2022-11-15T00:53:36.561Z,76.76
2022-11-15T00:56:04.874Z,77.46
2022-11-15T00:58:33.390Z,76.92
2022-11-15T01:01:10.475Z,74.14
2022-11-15T01:03:40.048Z,73.95
2022-11-15T01:06:09.550Z,73.72
2022-11-15T01:08:38.143Z,73.55
2022-11-15T01:11:08.875Z,73.04
2022-11-15T01:13:38.323Z,72.72
2022-11-15T01:16:14.206Z,73.13
2022-11-15T01:18:43.105Z,72.58
2022-11-15T01:21:12.799Z,72.99
2022-11-15T01:23:41.258Z,73.20
2022-11-15T01:26:12.481Z,73.13
2022-11-15T01:28:42.594Z,73.09
2022-11-15T01:31:15.598Z,73.14
2022-11-15T01:33:44.317Z,73.68
2022-11-15T01:36:16.171Z,73.13
2022-11-15T01:38:44.489Z,73.18
2022-11-15T01:41:18.822Z,73.27
2022-11-15T01:43:48.844Z,73.31
2022-11-15T01:46:29.061Z,72.55
2022-11-15T01:48:59.939Z,72.92
2022-11-15T01:51:31.289Z,73.51
2022-11-15T01:54:04.680Z,73.60
2022-11-15T01:56:38.364Z,73.69
2022-11-15T01:59:09.231Z,72.85
2022-11-15T02:01:39.348Z,72.97
2022-11-15T02:04:12.417Z,75.76
2022-11-15T02:06:42.271Z,77.19
2022-11-15T02:09:10.628Z,79.77
2022-11-15T02:11:39.586Z,82.93
2022-11-15T02:14:09.491Z,85.58
2022-11-15T02:16:49.022Z,89.95
2022-11-15T02:19:34.652Z,91.31
2022-11-15T02:22:13.452Z,96.02
2022-11-15T02:24:59.176Z,91.70
2022-11-15T02:28:07.408Z,86.27
2022-11-15T02:30:45.421Z,85.75
2022-11-15T02:33:26.215Z,85.06
2022-11-15T02:36:00.732Z,86.72
2022-11-15T02:38:36.569Z,87.33
2022-11-15T02:41:09.188Z,86.54
2022-11-15T02:44:00.222Z,85.24
2022-11-15T02:46:54.234Z,86.09
2022-11-15T02:49:23.769Z,84.00
2022-11-15T02:51:54.620Z,81.77
2022-11-15T02:54:24.991Z,80.24
2022-11-15T02:56:57.070Z,82.01
2022-11-15T03:00:00.846Z,82.63
2022-11-15T03:02:48.797Z,82.01
2022-11-15T03:05:23.835Z,82.66
2022-11-15T03:08:02.235Z,81.61
2022-11-15T03:10:38.419Z,83.51
2022-11-15T03:13:17.206Z,87.25
2022-11-15T03:15:53.622Z,85.58
2022-11-15T03:18:28.693Z,83.60
2022-11-15T03:20:58.331Z,83.15
2022-11-15T03:23:28.177Z,86.49
2022-11-15T03:25:58.742Z,95.62
2022-11-15T03:28:35.067Z,96.39
2022-11-15T03:31:27.630Z,93.97
2022-11-15T03:34:00.237Z,89.14
2022-11-15T03:36:29.541Z,86.37
2022-11-15T03:39:03.009Z,85.29
2022-11-15T03:41:40.690Z,83.80
2022-11-15T03:44:19.192Z,83.57
2022-11-15T03:46:53.060Z,81.84
2022-11-15T03:49:31.830Z,81.03
2022-11-15T03:52:01.434Z,80.80
2022-11-15T03:54:29.702Z,80.52
2022-11-15T03:56:58.074Z,80.19
2022-11-15T03:59:26.367Z,81.91
2022-11-15T04:01:54.689Z,80.20
2022-11-15T04:04:24.376Z,80.32
2022-11-15T04:06:52.649Z,80.96
2022-11-15T04:09:23.831Z,85.14
2022-11-15T04:11:52.030Z,88.69
2022-11-15T04:14:20.207Z,89.87
2022-11-15T04:16:48.507Z,91.67
2022-11-15T04:19:33.838Z,88.90
2022-11-15T04:22:20.927Z,87.83
2022-11-15T04:24:49.123Z,84.87
2022-11-15T04:27:17.419Z,81.64
2022-11-15T04:29:45.655Z,80.51
2022-11-15T04:32:13.861Z,85.28
2022-11-15T04:34:42.050Z,80.85
2022-11-15T04:37:14.588Z,82.16
2022-11-15T04:39:43.593Z,88.03
2022-11-15T04:42:12.302Z,91.74
2022-11-15T04:44:40.632Z,96.54
2022-11-15T04:47:08.890Z,97.90
2022-11-15T04:49:37.172Z,93.97
2022-11-15T04:52:05.729Z,90.74
2022-11-15T04:54:35.307Z,89.11
2022-11-15T04:57:03.511Z,87.07
2022-11-15T04:59:31.783Z,86.89
2022-11-15T05:01:59.972Z,87.15
2022-11-15T05:04:27.698Z,87.33
2022-11-15T05:06:56.012Z,88.04
2022-11-15T05:09:24.252Z,87.57
2022-11-15T05:11:53.861Z,86.81
2022-11-15T05:14:22.072Z,87.29
2022-11-15T05:16:50.347Z,87.70
2022-11-15T05:19:18.527Z,87.81
2022-11-15T05:21:46.738Z,87.93
2022-11-15T05:24:14.988Z,89.19
2022-11-15T05:26:43.178Z,93.04
2022-11-15T05:29:13.254Z,97.50
2022-11-15T05:31:43.563Z,100.00
2022-11-15T05:34:12.302Z,99.60
2022-11-15T05:36:43.187Z,94.65
2022-11-15T05:39:11.552Z,93.13
2022-11-15T05:41:43.798Z,96.49
2022-11-15T05:44:17.442Z,99.23
2022-11-15T05:46:46.725Z,100.00
2022-11-15T05:49:19.331Z,100.00
2022-11-15T05:51:50.853Z,91.65
2022-11-15T05:54:21.620Z,86.00
2022-11-15T05:56:50.851Z,87.42
2022-11-15T05:59:21.209Z,87.91
2022-11-15T06:01:49.478Z,89.59
2022-11-15T06:04:17.766Z,89.99
2022-11-15T06:06:46.091Z,90.88
2022-11-15T06:09:14.365Z,90.55
2022-11-15T06:11:42.583Z,89.20
2022-11-15T06:14:10.865Z,88.39
2022-11-15T06:16:40.476Z,86.81
2022-11-15T06:19:09.503Z,83.66
2022-11-15T06:21:37.930Z,81.79
2022-11-15T06:24:07.608Z,80.23
2022-11-15T06:26:35.819Z,76.42
2022-11-15T06:29:05.199Z,75.09
2022-11-15T06:31:33.451Z,73.50
2022-11-15T06:34:03.196Z,73.37
2022-11-15T06:36:31.453Z,72.88
2022-11-15T06:38:59.736Z,73.79
2022-11-15T06:41:27.939Z,74.77
2022-11-15T06:43:56.394Z,76.36
2022-11-15T06:46:24.713Z,78.94
2022-11-15T06:48:53.261Z,82.10
2022-11-15T06:51:23.137Z,82.82
2022-11-15T06:53:51.446Z,83.24
2022-11-15T06:56:19.716Z,83.50
2022-11-15T06:58:47.999Z,80.76
2022-11-15T07:01:16.242Z,80.03
2022-11-15T07:03:45.046Z,80.21
2022-11-15T07:06:13.241Z,76.88
2022-11-15T07:08:43.839Z,77.41
2022-11-15T07:11:13.072Z,77.44
2022-11-15T07:13:41.243Z,74.37
2022-11-15T07:16:12.700Z,75.41
2022-11-15T07:18:42.197Z,76.33
2022-11-15T07:21:12.407Z,76.37
2022-11-15T07:23:42.550Z,75.12
2022-11-15T07:26:10.933Z,75.69
2022-11-15T07:28:39.338Z,77.04
2022-11-15T07:31:09.862Z,78.46
2022-11-15T07:33:38.579Z,77.58
2022-11-15T07:36:09.238Z,76.29
2022-11-15T07:38:42.546Z,76.82
2022-11-15T07:41:12.560Z,76.13
2022-11-15T07:43:40.718Z,75.67
2022-11-15T07:46:10.964Z,74.66
2022-11-15T07:48:44.547Z,75.63
2022-11-15T07:51:15.041Z,74.75
2022-11-15T07:53:43.590Z,72.32
2022-11-15T07:56:14.087Z,69.29
2022-11-15T07:58:42.620Z,68.32
2022-11-15T08:01:12.317Z,66.96
2022-11-15T08:03:40.876Z,64.09
2022-11-15T08:06:09.173Z,61.63
2022-11-15T08:08:37.388Z,59.71
2022-11-15T08:11:06.028Z,59.69
2022-11-15T08:13:35.829Z,58.39
2022-11-15T08:16:06.623Z,58.30
2022-11-15T08:18:34.991Z,59.43
2022-11-15T08:21:04.627Z,58.73
2022-11-15T08:23:33.471Z,57.99
2022-11-15T08:26:03.930Z,56.64
2022-11-15T08:28:33.328Z,54.48
2022-11-15T08:31:03.736Z,53.96
2022-11-15T08:33:36.195Z,53.49
2022-11-15T08:36:05.378Z,52.42
2022-11-15T08:38:33.929Z,50.92
2022-11-15T08:41:05.074Z,50.36
2022-11-15T08:43:33.601Z,50.62
2022-11-15T08:46:03.638Z,49.93
2022-11-15T08:48:32.653Z,48.23
2022-11-15T08:51:01.682Z,48.05
2022-11-15T08:53:29.964Z,48.10
2022-11-15T08:55:58.247Z,47.48
2022-11-15T08:58:26.439Z,46.62
2022-11-15T09:00:54.694Z,45.16
2022-11-15T09:03:24.285Z,45.47
2022-11-15T09:05:56.960Z,45.33
2022-11-15T09:08:46.431Z,44.69
2022-11-15T09:11:13.780Z,44.06
2022-11-15T09:13:42.319Z,45.00
2022-11-15T09:16:10.511Z,45.52
2022-11-15T09:18:40.094Z,44.00
2022-11-15T09:21:08.280Z,43.02
2022-11-15T09:23:36.583Z,44.51
2022-11-15T09:26:06.451Z,43.37
2022-11-15T09:28:36.477Z,43.28
2022-11-15T09:31:07.012Z,43.87
2022-11-15T09:33:35.373Z,41.74
2022-11-15T09:36:07.203Z,42.69
2022-11-15T09:38:36.282Z,41.23
2022-11-15T09:41:32.116Z,39.45
2022-11-15T09:44:21.150Z,38.91
2022-11-15T09:47:05.436Z,38.82
2022-11-15T09:49:34.268Z,38.63
2022-11-15T09:52:05.138Z,38.16
2022-11-15T09:57:32.655Z,38.23
2022-11-15T10:03:14.624Z,36.10
2022-11-15T10:05:44.957Z,35.21
2022-11-15T10:08:28.203Z,34.63
2022-11-15T10:11:30.687Z,34.32
2022-11-15T10:13:51.020Z,34.12
2022-11-15T10:16:54.691Z,34.66
2022-11-15T10:19:28.924Z,34.73
2022-11-15T10:22:05.840Z,33.19
2022-11-15T10:24:39.932Z,34.13
2022-11-15T10:27:13.619Z,33.26
2022-11-15T10:29:46.473Z,32.80
2022-11-15T10:32:15.958Z,34.91
2022-11-15T10:34:44.400Z,34.17
2022-11-15T10:37:13.070Z,34.10
2022-11-15T10:42:31.416Z,34.52
2022-11-15T10:44:59.688Z,33.29
2022-11-15T10:47:37.825Z,33.31
2022-11-15T10:50:27.828Z,34.26
2022-11-15T10:52:56.491Z,34.25
2022-11-15T10:55:30.248Z,34.70
2022-11-15T10:58:06.565Z,35.26
2022-11-15T11:00:39.655Z,34.70
2022-11-15T11:03:25.784Z,34.44
2022-11-15T11:06:06.466Z,33.34
2022-11-15T11:08:37.530Z,32.37
2022-11-15T11:11:08.636Z,31.32
2022-11-15T11:13:39.598Z,30.92
2022-11-15T11:16:39.109Z,33.06
2022-11-15T11:19:34.267Z,31.84
2022-11-15T11:22:11.604Z,30.91
2022-11-15T11:24:48.146Z,32.75
2022-11-15T11:27:26.668Z,33.57
2022-11-15T11:30:08.581Z,34.02
2022-11-15T11:32:55.283Z,31.70
2022-11-15T11:35:30.429Z,31.02
2022-11-15T11:38:09.947Z,32.59
2022-11-15T11:40:44.786Z,31.59
2022-11-15T11:43:23.651Z,32.49
2022-11-15T11:46:11.559Z,33.23
2022-11-15T11:48:44.963Z,34.29
2022-11-15T11:51:19.832Z,32.88
2022-11-15T11:53:54.482Z,32.07
2022-11-15T11:56:28.936Z,30.75
2022-11-15T11:59:04.598Z,32.61
2022-11-15T12:01:38.386Z,33.86
2022-11-15T12:04:14.196Z,33.30
2022-11-15T12:06:51.370Z,31.80
2022-11-15T12:09:26.001Z,33.27
2022-11-15T12:12:00.430Z,32.64
2022-11-15T12:14:35.742Z,31.49
2022-11-15T12:17:04.022Z,31.57
2022-11-15T12:19:32.913Z,31.67
2022-11-15T12:22:07.365Z,31.97
2022-11-15T12:24:41.092Z,31.19
2022-11-15T12:27:23.386Z,30.35
2022-11-15T12:30:00.101Z,30.13
2022-11-15T12:32:33.920Z,30.94
2022-11-15T12:35:04.234Z,33.22
2022-11-15T12:37:59.531Z,32.14
2022-11-15T12:40:35.671Z,32.02
2022-11-15T12:43:42.529Z,32.74
2022-11-15T12:46:23.314Z,32.86
2022-11-15T12:48:57.837Z,34.25
2022-11-15T12:52:08.085Z,33.36
2022-11-15T12:55:03.083Z,32.69
2022-11-15T12:57:50.502Z,32.80
2022-11-15T13:00:48.771Z,32.08
2022-11-15T13:03:32.377Z,32.63
2022-11-15T13:06:31.490Z,33.38
2022-11-15T13:08:59.817Z,32.48
2022-11-15T13:11:49.582Z,33.70
2022-11-15T13:14:44.452Z,34.44
2022-11-15T13:17:26.987Z,32.91
2022-11-15T13:20:02.094Z,32.70
2022-11-15T13:23:00.455Z,33.36
2022-11-15T13:25:51.526Z,32.97
2022-11-15T13:28:28.429Z,34.07
2022-11-15T13:30:58.573Z,34.28
2022-11-15T13:33:35.687Z,34.59
2022-11-15T13:36:08.794Z,34.47
2022-11-15T13:38:38.890Z,34.79
2022-11-15T13:41:21.136Z,34.98
2022-11-15T13:43:50.073Z,34.15
2022-11-15T13:46:20.443Z,34.51
2022-11-15T13:48:53.400Z,35.73
2022-11-15T13:51:29.345Z,35.66
2022-11-15T13:54:00.912Z,36.95
2022-11-15T13:56:31.291Z,37.81
2022-11-15T13:58:59.722Z,39.95
2022-11-15T14:01:34.152Z,39.86
2022-11-15T14:04:03.574Z,39.96
2022-11-15T14:06:33.526Z,41.59
2022-11-15T14:09:41.055Z,42.51
2022-11-15T14:12:31.526Z,46.48
2022-11-15T14:15:01.105Z,47.76
2022-11-15T14:17:38.701Z,49.04
2022-11-15T14:20:28.611Z,48.21
2022-11-15T14:23:00.247Z,48.35
2022-11-15T14:25:30.032Z,48.29
2022-11-15T14:28:32.060Z,51.14
2022-11-15T14:31:02.237Z,52.91
2022-11-15T14:33:34.073Z,51.72
2022-11-15T14:36:14.722Z,53.15
2022-11-15T14:38:45.034Z,55.14
2022-11-15T14:41:21.436Z,55.00
2022-11-15T14:43:50.208Z,55.68
2022-11-15T14:46:18.869Z,55.74
2022-11-15T14:48:47.588Z,57.35
2022-11-15T14:51:17.607Z,58.44
2022-11-15T14:53:47.987Z,59.01
2022-11-15T14:56:17.300Z,58.71
2022-11-15T14:58:45.623Z,59.90
2022-11-15T15:01:16.555Z,61.29
2022-11-15T15:03:45.629Z,62.28
2022-11-15T15:06:18.045Z,60.36
2022-11-15T15:08:51.548Z,61.34
2022-11-15T15:11:23.592Z,61.57
2022-11-15T15:13:51.948Z,62.76
2022-11-15T15:16:20.261Z,62.56
2022-11-15T15:18:48.775Z,63.76
2022-11-15T15:21:23.028Z,62.12
2022-11-15T15:23:52.951Z,62.88
2022-11-15T15:26:21.144Z,64.20
2022-11-15T15:28:49.853Z,65.10
2022-11-15T15:31:18.165Z,64.64
2022-11-15T15:33:46.857Z,63.72
2022-11-15T15:36:19.030Z,63.48
2022-11-15T15:38:48.013Z,62.65
2022-11-15T15:41:19.061Z,62.33
2022-11-15T15:43:47.357Z,61.17
2022-11-15T15:46:17.624Z,62.60
2022-11-15T15:48:46.379Z,64.31
2022-11-15T15:51:20.218Z,64.89
2022-11-15T15:53:49.549Z,65.49
2022-11-15T15:56:19.384Z,66.08
2022-11-15T15:58:47.713Z,67.29
2022-11-15T16:01:16.038Z,66.49
2022-11-15T16:03:44.358Z,65.79
2022-11-15T16:06:41.436Z,66.32
2022-11-15T16:09:16.907Z,64.93
2022-11-15T16:11:48.436Z,66.33
2022-11-15T16:14:16.752Z,66.53
2022-11-15T16:16:45.042Z,65.05
2022-11-15T16:19:14.259Z,65.82
2022-11-15T16:21:42.564Z,66.90
2022-11-15T16:24:10.857Z,66.49
2022-11-15T16:26:39.884Z,64.54
2022-11-15T16:29:10.508Z,64.58
2022-11-15T16:31:38.969Z,66.24
2022-11-15T16:34:07.625Z,67.26
2022-11-15T16:36:36.740Z,66.55
2022-11-15T16:39:05.483Z,64.68
2022-11-15T16:41:33.756Z,64.61
2022-11-15T16:44:02.268Z,65.88
2022-11-15T16:46:31.903Z,67.50
2022-11-15T16:49:00.201Z,65.29
2022-11-15T16:51:28.704Z,64.45
2022-11-15T16:53:56.970Z,64.04
2022-11-15T16:56:28.330Z,65.92
2022-11-15T16:58:58.817Z,67.31
2022-11-15T17:01:29.213Z,69.04
2022-11-15T17:03:59.361Z,67.69
2022-11-15T17:06:28.707Z,66.08
2022-11-15T17:08:57.241Z,66.57
2022-11-15T17:11:25.506Z,66.83
2022-11-15T17:13:59.021Z,65.30
2022-11-15T17:16:27.914Z,65.54
2022-11-15T17:18:56.120Z,64.67
2022-11-15T17:21:33.403Z,65.06
2022-11-15T17:24:01.983Z,64.88
2022-11-15T17:26:33.002Z,64.99
2022-11-15T17:29:04.603Z,64.94
2022-11-15T17:31:34.235Z,65.95
2022-11-15T17:34:03.404Z,65.17
2022-11-15T17:36:33.619Z,67.61
2022-11-15T17:39:02.237Z,68.92
2022-11-15T17:41:31.034Z,68.53
2022-11-15T17:44:02.077Z,68.09
2022-11-15T17:46:31.143Z,67.94
2022-11-15T17:48:59.912Z,67.91
2022-11-15T17:51:28.297Z,68.59
2022-11-15T17:53:58.100Z,70.78
2022-11-15T17:56:28.388Z,70.09
2022-11-15T17:58:58.607Z,68.05
2022-11-15T18:01:28.339Z,67.34
2022-11-15T18:03:57.595Z,68.25
2022-11-15T18:06:26.519Z,70.23
2022-11-15T18:08:56.854Z,68.95
2022-11-15T18:11:28.977Z,67.96
2022-11-15T18:13:59.387Z,68.94
2022-11-15T18:16:31.146Z,70.62
2022-11-15T18:19:00.310Z,74.60
2022-11-15T18:21:30.310Z,77.85
2022-11-15T18:24:01.394Z,80.08
2022-11-15T18:26:32.356Z,77.54
2022-11-15T18:29:05.390Z,80.21
2022-11-15T18:31:33.737Z,84.82
2022-11-15T18:34:02.291Z,80.49
2022-11-15T18:36:32.198Z,80.19
2022-11-15T18:39:02.467Z,75.95
2022-11-15T18:41:33.662Z,75.65
2022-11-15T18:44:03.337Z,75.20
2022-11-15T18:46:33.474Z,76.64
2022-11-15T18:49:03.430Z,77.65
2022-11-15T18:51:32.856Z,75.95
2022-11-15T18:54:02.781Z,75.92
2022-11-15T18:56:33.887Z,75.98
2022-11-15T18:59:04.348Z,76.80
2022-11-15T19:01:35.480Z,75.64
2022-11-15T19:04:06.594Z,75.72
2022-11-15T19:06:38.821Z,74.25
2022-11-15T19:09:08.115Z,73.81
2022-11-15T19:11:39.858Z,74.92
2022-11-15T19:14:09.951Z,73.77
2022-11-15T19:16:40.602Z,73.94
2022-11-15T19:19:11.593Z,75.96
2022-11-15T19:21:39.815Z,75.82
2022-11-15T19:24:08.562Z,75.57
2022-11-15T19:26:38.503Z,75.53
2022-11-15T19:29:08.388Z,76.76
2022-11-15T19:31:36.728Z,79.78
2022-11-15T19:34:06.733Z,80.58
2022-11-15T19:36:36.911Z,79.52
2022-11-15T19:39:08.589Z,78.18
2022-11-15T19:41:39.106Z,78.38
2022-11-15T19:44:07.862Z,77.95
2022-11-15T19:46:36.508Z,77.92
2022-11-15T19:49:05.120Z,77.99
2022-11-15T19:51:33.380Z,77.56
2022-11-15T19:54:06.681Z,77.97
2022-11-15T19:56:36.210Z,78.09
2022-11-15T19:59:06.323Z,78.17
2022-11-15T20:01:38.141Z,78.29
2022-11-15T20:04:07.918Z,78.75
2022-11-15T20:06:39.441Z,79.16
2022-11-15T20:09:07.801Z,78.96
2022-11-15T20:11:38.195Z,78.79
2022-11-15T20:14:09.586Z,79.03
2022-11-15T20:16:37.872Z,78.77
2022-11-15T20:19:07.418Z,78.62
2022-11-15T20:21:36.311Z,78.75
2022-11-15T20:24:04.944Z,86.00
2022-11-15T20:26:33.300Z,84.56
2022-11-15T20:29:03.335Z,82.47
2022-11-15T20:31:33.437Z,81.30
2022-11-15T20:34:01.936Z,80.92
2022-11-15T20:36:30.379Z,80.42
2022-11-15T20:38:59.717Z,80.43
2022-11-15T20:41:28.961Z,80.10
2022-11-15T20:43:57.557Z,79.77
2022-11-15T20:46:27.022Z,80.12
2022-11-15T20:48:56.619Z,80.29
2022-11-15T20:51:25.195Z,79.78
2022-11-15T20:53:53.515Z,79.71
2022-11-15T20:56:23.387Z,80.18
2022-11-15T20:58:52.252Z,79.68
2022-11-15T21:01:27.324Z,80.83
2022-11-15T21:03:57.762Z,80.03
2022-11-15T21:06:27.348Z,80.17
2022-11-15T21:09:14.373Z,80.10
2022-11-15T21:12:00.223Z,80.11
2022-11-15T21:14:29.193Z,80.28
2022-11-15T21:16:57.429Z,79.92
2022-11-15T21:19:31.387Z,80.71
2022-11-15T21:22:05.467Z,82.55
2022-11-15T21:24:34.284Z,81.32
2022-11-15T21:27:03.003Z,81.83
2022-11-15T21:29:37.580Z,81.15
2022-11-15T21:32:07.582Z,81.47
2022-11-15T21:34:37.536Z,81.21
2022-11-15T21:37:06.365Z,83.10
2022-11-15T21:39:34.956Z,82.29
2022-11-15T21:42:06.400Z,82.51
2022-11-15T21:44:34.693Z,82.14
2022-11-15T21:47:03.218Z,81.56
2022-11-15T21:49:31.490Z,80.83
2022-11-15T21:52:01.208Z,81.02
2022-11-15T21:54:29.477Z,83.19
2022-11-15T21:56:58.728Z,83.35
2022-11-15T21:59:26.991Z,84.60
2022-11-15T22:02:12.444Z,82.94
2022-11-15T22:04:40.665Z,83.24
2022-11-15T22:07:12.196Z,83.19
2022-11-15T22:09:40.614Z,84.40
2022-11-15T22:12:08.886Z,85.96
2022-11-15T22:14:37.203Z,84.35
2022-11-15T22:17:05.553Z,84.40
2022-11-15T22:19:33.890Z,83.80
2022-11-15T22:22:02.195Z,84.40
2022-11-15T22:24:31.933Z,83.83
2022-11-15T22:27:00.316Z,81.62
2022-11-15T22:29:28.967Z,80.51
2022-11-15T22:31:57.311Z,80.10
2022-11-15T22:34:25.650Z,80.48
2022-11-15T22:37:19.102Z,79.63
2022-11-15T22:39:43.747Z,79.31
2022-11-15T22:42:12.063Z,79.08
2022-11-15T22:44:40.411Z,79.23
2022-11-15T22:47:08.739Z,79.40
2022-11-15T22:49:37.086Z,78.87
2022-11-15T22:52:05.605Z,78.90
2022-11-15T22:54:33.931Z,79.44
2022-11-15T22:57:04.261Z,79.51
2022-11-15T22:59:32.589Z,79.40
2022-11-15T23:02:00.926Z,79.08
2022-11-15T23:04:29.242Z,79.72
2022-11-15T23:06:57.833Z,79.53
2022-11-15T23:09:26.258Z,77.90
2022-11-15T23:12:11.761Z,77.96
2022-11-15T23:14:41.510Z,77.30
2022-11-15T23:17:09.834Z,78.70
2022-11-15T23:19:38.308Z,78.53
2022-11-15T23:22:24.113Z,78.68
2022-11-15T23:24:53.381Z,79.17
2022-11-15T23:27:21.719Z,78.90
2022-11-15T23:30:08.007Z,80.67
2022-11-15T23:32:54.054Z,86.16
2022-11-15T23:35:22.435Z,83.78
2022-11-15T23:37:50.712Z,81.84
2022-11-15T23:40:19.479Z,83.23
2022-11-15T23:42:47.842Z,88.25
2022-11-15T23:45:18.465Z,85.32
2022-11-15T23:47:46.834Z,85.97
2022-11-15T23:50:15.224Z,83.91
2022-11-15T23:52:43.567Z,88.21
2022-11-15T23:55:11.889Z,84.04
2022-11-15T23:57:40.190Z,89.56
